sensor_id;sensor_type;location;lat;lon;timestamp;pressure;altitude;pressure_sealevel;temperature;humidity
75701;BME280;64321;48.796;44.740;2023-12-14T00:01:22;102902.47;;;-6.79;82.20
75701;BME280;64321;48.796;44.740;2023-12-14T00:06:25;102903.59;;;-6.69;85.02
75701;BME280;64321;48.796;44.740;2023-12-14T00:11:27;102903.59;;;-6.69;85.08
75701;BME280;64321;48.796;44.740;2023-12-14T00:16:30;102899.28;;;-6.70;88.21
75701;BME280;64321;48.796;44.740;2023-12-14T00:21:33;102907.56;;;-6.82;91.34
75701;BME280;64321;48.796;44.740;2023-12-14T00:26:35;102902.47;;;-6.79;96.01
75701;BME280;64321;48.796;44.740;2023-12-14T00:31:38;102898.69;;;-6.60;99.20
75701;BME280;64321;48.796;44.740;2023-12-14T00:36:40;102895.91;;;-6.69;100.00
75701;BME280;64321;48.796;44.740;2023-12-14T00:41:43;102875.47;;;-6.64;100.00
75701;BME280;64321;48.796;44.740;2023-12-14T00:46:45;102886.44;;;-6.70;100.00
75701;BME280;64321;48.796;44.740;2023-12-14T00:51:48;102884.69;;;-6.71;100.00
75701;BME280;64321;48.796;44.740;2023-12-14T00:56:51;102873.91;;;-6.58;100.00
75701;BME280;64321;48.796;44.740;2023-12-14T01:01:54;102879.56;;;-6.71;100.00
75701;BME280;64321;48.796;44.740;2023-12-14T01:06:56;102867.63;;;-6.69;100.00
75701;BME280;64321;48.796;44.740;2023-12-14T01:11:59;102872.78;;;-6.69;100.00
75701;BME280;64321;48.796;44.740;2023-12-14T01:17:02;102868.75;;;-6.58;100.00
75701;BME280;64321;48.796;44.740;2023-12-14T01:22:04;102874.66;;;-6.62;100.00
75701;BME280;64321;48.796;44.740;2023-12-14T01:27:07;102877.47;;;-6.53;100.00
75701;BME280;64321;48.796;44.740;2023-12-14T01:32:13;102876.44;;;-6.59;100.00
75701;BME280;64321;48.796;44.740;2023-12-14T01:37:15;102872.69;;;-6.72;100.00
75701;BME280;64321;48.796;44.740;2023-12-14T01:42:18;102880.03;;;-6.86;100.00
75701;BME280;64321;48.796;44.740;2023-12-14T01:47:20;102893.31;;;-6.69;100.00
75701;BME280;64321;48.796;44.740;2023-12-14T01:52:23;102889.84;;;-6.71;100.00
75701;BME280;64321;48.796;44.740;2023-12-14T01:57:25;102890.63;;;-6.74;100.00
75701;BME280;64321;48.796;44.740;2023-12-14T02:02:28;102883.72;;;-6.76;100.00
75701;BME280;64321;48.796;44.740;2023-12-14T02:07:31;102888.72;;;-6.82;100.00
75701;BME280;64321;48.796;44.740;2023-12-14T02:12:33;102896.56;;;-6.76;100.00
75701;BME280;64321;48.796;44.740;2023-12-14T02:17:36;102903.50;;;-6.72;100.00
75701;BME280;64321;48.796;44.740;2023-12-14T02:27:52;102898.41;;;-6.71;100.00
75701;BME280;64321;48.796;44.740;2023-12-14T02:32:55;102906.56;;;-6.54;100.00
75701;BME280;64321;48.796;44.740;2023-12-14T02:37:58;102897.19;;;-6.52;100.00
75701;BME280;64321;48.796;44.740;2023-12-14T02:43:00;102896.16;;;-6.58;100.00
75701;BME280;64321;48.796;44.740;2023-12-14T02:48:03;102888.19;;;-6.69;100.00
75701;BME280;64321;48.796;44.740;2023-12-14T02:53:06;102893.06;;;-6.78;100.00
75701;BME280;64321;48.796;44.740;2023-12-14T02:58:09;102901.84;;;-6.70;100.00
75701;BME280;64321;48.796;44.740;2023-12-14T03:03:11;102897.19;;;-6.52;100.00
75701;BME280;64321;48.796;44.740;2023-12-14T03:08:14;102896.88;;;-6.64;100.00
75701;BME280;64321;48.796;44.740;2023-12-14T03:13:17;102895.53;;;-6.50;100.00
75701;BME280;64321;48.796;44.740;2023-12-14T03:18:19;102905.84;;;-6.48;100.00
75701;BME280;64321;48.796;44.740;2023-12-14T03:23:22;102910.63;;;-6.62;100.00
75701;BME280;64321;48.796;44.740;2023-12-14T03:28:25;102917.44;;;-6.64;100.00
75701;BME280;64321;48.796;44.740;2023-12-14T03:33:27;102907.78;;;-6.73;100.00
75701;BME280;64321;48.796;44.740;2023-12-14T03:38:31;102919.19;;;-6.63;100.00
75701;BME280;64321;48.796;44.740;2023-12-14T03:43:33;102906.47;;;-6.57;100.00
75701;BME280;64321;48.796;44.740;2023-12-14T03:48:36;102922.09;;;-6.49;100.00
75701;BME280;64321;48.796;44.740;2023-12-14T03:53:39;102910.78;;;-6.56;100.00
75701;BME280;64321;48.796;44.740;2023-12-14T03:58:42;102912.34;;;-6.61;100.00
75701;BME280;64321;48.796;44.740;2023-12-14T04:03:45;102919.78;;;-6.39;100.00
75701;BME280;64321;48.796;44.740;2023-12-14T04:08:47;102919.88;;;-6.36;100.00
75701;BME280;64321;48.796;44.740;2023-12-14T04:13:50;102918.38;;;-6.27;100.00
75701;BME280;64321;48.796;44.740;2023-12-14T04:18:55;102909.13;;;-6.54;100.00
75701;BME280;64321;48.796;44.740;2023-12-14T04:23:58;102920.03;;;-6.29;100.00
75701;BME280;64321;48.796;44.740;2023-12-14T04:29:01;102925.38;;;-6.20;100.00
75701;BME280;64321;48.796;44.740;2023-12-14T04:34:04;102917.41;;;-6.31;100.00
75701;BME280;64321;48.796;44.740;2023-12-14T04:39:06;102925.09;;;-6.33;99.79
75701;BME280;64321;48.796;44.740;2023-12-14T04:44:09;102933.72;;;-6.31;98.89
75701;BME280;64321;48.796;44.740;2023-12-14T04:49:13;102919.56;;;-6.13;97.84
75701;BME280;64321;48.796;44.740;2023-12-14T04:54:15;102924.53;;;-6.19;93.26
75701;BME280;64321;48.796;44.740;2023-12-14T04:59:18;102932.50;;;-6.10;92.96
75701;BME280;64321;48.796;44.740;2023-12-14T05:04:20;102934.59;;;-5.94;85.93
75701;BME280;64321;48.796;44.740;2023-12-14T05:09:23;102916.25;;;-6.08;82.13
75701;BME280;64321;48.796;44.740;2023-12-14T05:14:26;102929.00;;;-6.12;79.17
75701;BME280;64321;48.796;44.740;2023-12-14T05:19:32;102934.59;;;-5.94;77.61
75701;BME280;64321;48.796;44.740;2023-12-14T05:24:38;102946.53;;;-5.96;75.82
75701;BME280;64321;48.796;44.740;2023-12-14T05:29:41;102935.69;;;-5.81;75.20
75701;BME280;64321;48.796;44.740;2023-12-14T05:34:44;102938.09;;;-5.50;75.43
75701;BME280;64321;48.796;44.740;2023-12-14T05:39:46;102932.16;;;-5.47;71.46
75701;BME280;64321;48.796;44.740;2023-12-14T05:44:49;102938.00;;;-5.54;70.30
75701;BME280;64321;48.796;44.740;2023-12-14T05:49:52;102940.03;;;-5.41;71.24
75701;BME280;64321;48.796;44.740;2023-12-14T05:54:54;102947.81;;;-5.37;69.60
75701;BME280;64321;48.796;44.740;2023-12-14T05:59:57;102962.41;;;-5.39;67.38
75701;BME280;64321;48.796;44.740;2023-12-14T06:04:59;102958.13;;;-5.38;65.39
75701;BME280;64321;48.796;44.740;2023-12-14T06:10:05;102973.56;;;-5.38;65.12
75701;BME280;64321;48.796;44.740;2023-12-14T06:15:08;102976.25;;;-5.32;63.76
75701;BME280;64321;48.796;44.740;2023-12-14T06:20:11;102960.63;;;-5.41;64.01
75701;BME280;64321;48.796;44.740;2023-12-14T06:25:14;102963.31;;;-5.35;63.86
75701;BME280;64321;48.796;44.740;2023-12-14T06:30:16;102964.97;;;-5.37;63.07
75701;BME280;64321;48.796;44.740;2023-12-14T06:35:19;102938.13;;;-5.08;62.94
75701;BME280;64321;48.796;44.740;2023-12-14T06:40:22;102933.03;;;-5.06;62.67
75701;BME280;64321;48.796;44.740;2023-12-14T06:45:25;102932.28;;;-4.99;63.59
75701;BME280;64321;48.796;44.740;2023-12-14T06:50:27;102937.47;;;-4.98;62.91
75701;BME280;64321;48.796;44.740;2023-12-14T06:55:30;102921.38;;;-4.87;63.21
75701;BME280;64321;48.796;44.740;2023-12-14T07:00:32;102917.75;;;-4.96;63.81
75701;BME280;64321;48.796;44.740;2023-12-14T07:05:35;102908.81;;;-4.69;64.05
75701;BME280;64321;48.796;44.740;2023-12-14T07:10:41;102925.44;;;-4.52;63.17
75701;BME280;64321;48.796;44.740;2023-12-14T07:15:44;102923.66;;;-4.56;60.73
75701;BME280;64321;48.796;44.740;2023-12-14T07:20:47;102932.09;;;-4.63;60.44
75701;BME280;64321;48.796;44.740;2023-12-14T07:25:49;102939.19;;;-4.53;60.70
75701;BME280;64321;48.796;44.740;2023-12-14T07:30:52;102934.19;;;-4.42;59.55
75701;BME280;64321;48.796;44.740;2023-12-14T07:35:54;102943.41;;;-4.57;59.64
75701;BME280;64321;48.796;44.740;2023-12-14T07:40:57;102931.28;;;-4.61;59.43
75701;BME280;64321;48.796;44.740;2023-12-14T07:45:59;102918.31;;;-4.65;58.44
75701;BME280;64321;48.796;44.740;2023-12-14T07:51:02;102904.38;;;-4.76;57.55
75701;BME280;64321;48.796;44.740;2023-12-14T07:56:05;102901.00;;;-4.74;57.82
75701;BME280;64321;48.796;44.740;2023-12-14T08:01:08;102899.94;;;-4.83;58.00
75701;BME280;64321;48.796;44.740;2023-12-14T08:06:11;102898.44;;;-4.72;57.40
75701;BME280;64321;48.796;44.740;2023-12-14T08:11:17;102894.16;;;-4.72;56.41
75701;BME280;64321;48.796;44.740;2023-12-14T08:16:20;102900.38;;;-4.61;55.83
75701;BME280;64321;48.796;44.740;2023-12-14T08:21:23;102888.72;;;-4.39;55.70
75701;BME280;64321;48.796;44.740;2023-12-14T08:26:26;102885.69;;;-4.63;54.81
75701;BME280;64321;48.796;44.740;2023-12-14T08:31:28;102907.88;;;-4.23;54.37
75701;BME280;64321;48.796;44.740;2023-12-14T08:36:31;102900.22;;;-4.18;53.52
75701;BME280;64321;48.796;44.740;2023-12-14T08:41:33;102913.94;;;-4.20;53.36
75701;BME280;64321;48.796;44.740;2023-12-14T08:46:44;102910.66;;;-4.09;52.95
75701;BME280;64321;48.796;44.740;2023-12-14T08:51:47;102913.97;;;-4.18;52.96
75701;BME280;64321;48.796;44.740;2023-12-14T08:56:49;102907.34;;;-4.02;52.88
75701;BME280;64321;48.796;44.740;2023-12-14T09:01:52;102897.72;;;-4.14;52.90
75701;BME280;64321;48.796;44.740;2023-12-14T09:06:55;102912.34;;;-4.11;53.20
75701;BME280;64321;48.796;44.740;2023-12-14T09:11:58;102912.00;;;-3.78;53.05
75701;BME280;64321;48.796;44.740;2023-12-14T09:17:00;102907.34;;;-4.02;52.76
75701;BME280;64321;48.796;44.740;2023-12-14T09:22:03;102905.56;;;-4.05;53.12
75701;BME280;64321;48.796;44.740;2023-12-14T09:27:05;102894.44;;;-4.02;52.85
75701;BME280;64321;48.796;44.740;2023-12-14T09:32:08;102892.84;;;-3.93;52.53
75701;BME280;64321;48.796;44.740;2023-12-14T09:37:11;102875.63;;;-3.94;52.88
75701;BME280;64321;48.796;44.740;2023-12-14T09:42:19;102869.66;;;-3.91;52.57
75701;BME280;64321;48.796;44.740;2023-12-14T09:47:25;102867.91;;;-3.92;52.67
75701;BME280;64321;48.796;44.740;2023-12-14T09:52:29;102868.13;;;-3.75;52.46
75701;BME280;64321;48.796;44.740;2023-12-14T09:57:31;102877.31;;;-3.97;51.63
75701;BME280;64321;48.796;44.740;2023-12-14T10:02:34;102875.91;;;-3.74;52.68
75701;BME280;64321;48.796;44.740;2023-12-14T10:07:44;102870.03;;;-3.64;52.15
75701;BME280;64321;48.796;44.740;2023-12-14T10:12:54;102867.66;;;-3.48;51.54
75701;BME280;64321;48.796;44.740;2023-12-14T10:17:56;102869.44;;;-3.40;51.86
75701;BME280;64321;48.796;44.740;2023-12-14T10:23:00;102858.28;;;-3.40;51.21
75701;BME280;64321;48.796;44.740;2023-12-14T10:28:03;102866.75;;;-3.51;52.07
75701;BME280;64321;48.796;44.740;2023-12-14T10:33:06;102855.72;;;-3.37;51.88
75701;BME280;64321;48.796;44.740;2023-12-14T10:38:12;102861.59;;;-3.51;51.65
75701;BME280;64321;48.796;44.740;2023-12-14T10:43:15;102866.78;;;-3.49;51.69
75701;BME280;64321;48.796;44.740;2023-12-14T10:48:39;102861.44;;;-3.63;52.36
75701;BME280;64321;48.796;44.740;2023-12-14T10:53:47;102854.44;;;-3.71;52.41
75701;BME280;64321;48.796;44.740;2023-12-14T10:58:56;102845.88;;;-3.67;52.22
75701;BME280;64321;48.796;44.740;2023-12-14T11:04:00;102838.97;;;-3.70;52.40
75701;BME280;64321;48.796;44.740;2023-12-14T11:09:07;102832.84;;;-3.79;51.79
75701;BME280;64321;48.796;44.740;2023-12-14T11:14:12;102835.88;;;-4.06;52.22
75701;BME280;64321;48.796;44.740;2023-12-14T11:24:25;102829.34;;;-4.42;53.64
75701;BME280;64321;48.796;44.740;2023-12-14T11:29:28;102824.97;;;-4.49;53.40
75701;BME280;64321;48.796;44.740;2023-12-14T11:34:31;102832.44;;;-4.63;53.19
75701;BME280;64321;48.796;44.740;2023-12-14T11:39:35;102800.50;;;-4.74;53.50
75701;BME280;64321;48.796;44.740;2023-12-14T11:44:41;102807.47;;;-4.68;54.32
75701;BME280;64321;48.796;44.740;2023-12-14T11:49:43;102799.09;;;-4.53;52.72
75701;BME280;64321;48.796;44.740;2023-12-14T11:54:47;102799.56;;;-4.77;52.51
75701;BME280;64321;48.796;44.740;2023-12-14T11:59:50;102789.16;;;-4.85;52.92
75701;BME280;64321;48.796;44.740;2023-12-14T12:04:54;102796.63;;;-4.99;53.21
75701;BME280;64321;48.796;44.740;2023-12-14T12:09:56;102799.16;;;-5.02;53.02
75701;BME280;64321;48.796;44.740;2023-12-14T12:14:59;102802.25;;;-5.21;53.72
75701;BME280;64321;48.796;44.740;2023-12-14T12:20:02;102828.03;;;-5.18;54.14
75701;BME280;64321;48.796;44.740;2023-12-14T12:25:05;102812.50;;;-5.24;54.49
75701;BME280;64321;48.796;44.740;2023-12-14T12:30:16;102820.34;;;-5.16;54.42
75701;BME280;64321;48.796;44.740;2023-12-14T12:35:19;102822.84;;;-5.21;55.59
75701;BME280;64321;48.796;44.740;2023-12-14T12:40:24;102837.81;;;-5.45;55.03
75701;BME280;64321;48.796;44.740;2023-12-14T12:45:28;102839.69;;;-5.38;55.30
75701;BME280;64321;48.796;44.740;2023-12-14T12:50:31;102846.44;;;-5.43;55.38
75701;BME280;64321;48.796;44.740;2023-12-14T12:55:34;102842.91;;;-5.48;56.26
75701;BME280;64321;48.796;44.740;2023-12-14T13:00:37;102848.47;;;-5.69;56.22
75701;BME280;64321;48.796;44.740;2023-12-14T13:05:40;102848.53;;;-5.66;56.96
75701;BME280;64321;48.796;44.740;2023-12-14T13:10:43;102864.03;;;-5.65;57.64
75701;BME280;64321;48.796;44.740;2023-12-14T13:15:46;102875.88;;;-5.71;57.60
75701;BME280;64321;48.796;44.740;2023-12-14T13:20:48;102885.03;;;-5.84;57.06
75701;BME280;64321;48.796;44.740;2023-12-14T13:25:51;102890.19;;;-5.84;57.12
75701;BME280;64321;48.796;44.740;2023-12-14T13:30:54;102902.97;;;-5.87;57.58
75701;BME280;64321;48.796;44.740;2023-12-14T13:35:57;102901.25;;;-5.88;58.44
75701;BME280;64321;48.796;44.740;2023-12-14T13:40:59;102903.56;;;-6.00;58.46
75701;BME280;64321;48.796;44.740;2023-12-14T13:46:02;102925.97;;;-5.96;59.35
75701;BME280;64321;48.796;44.740;2023-12-14T13:51:20;102933.69;;;-5.96;59.08
75701;BME280;64321;48.796;44.740;2023-12-14T13:56:23;102930.28;;;-5.95;59.87
75701;BME280;64321;48.796;44.740;2023-12-14T14:01:26;102943.09;;;-5.97;59.63
75701;BME280;64321;48.796;44.740;2023-12-14T14:06:28;102932.78;;;-5.98;59.41
75701;BME280;64321;48.796;44.740;2023-12-14T14:11:31;102938.81;;;-5.96;60.16
75701;BME280;64321;48.796;44.740;2023-12-14T14:16:34;102921.53;;;-6.02;59.52
75701;BME280;64321;48.796;44.740;2023-12-14T14:21:36;102922.50;;;-5.98;59.50
75701;BME280;64321;48.796;44.740;2023-12-14T14:26:39;102916.84;;;-6.19;61.21
75701;BME280;64321;48.796;44.740;2023-12-14T14:31:41;102934.06;;;-6.15;62.06
75701;BME280;64321;48.796;44.740;2023-12-14T14:36:44;102936.09;;;-6.02;62.70
75701;BME280;64321;48.796;44.740;2023-12-14T14:41:47;102928.84;;;-6.18;62.64
75701;BME280;64321;48.796;44.740;2023-12-14T14:46:51;102925.00;;;-6.36;63.73
75701;BME280;64321;48.796;44.740;2023-12-14T14:51:54;102910.19;;;-6.46;63.70
75701;BME280;64321;48.796;44.740;2023-12-14T14:56:57;102909.28;;;-6.48;64.75
75701;BME280;64321;48.796;44.740;2023-12-14T15:02:00;102886.44;;;-6.70;65.71
75701;BME280;64321;48.796;44.740;2023-12-14T15:07:04;102874.34;;;-6.74;66.36
75701;BME280;64321;48.796;44.740;2023-12-14T15:12:07;102872.53;;;-6.78;66.67
75701;BME280;64321;48.796;44.740;2023-12-14T15:17:09;102875.38;;;-7.01;68.06
75701;BME280;64321;48.796;44.740;2023-12-14T15:22:12;102892.75;;;-6.90;68.24
75701;BME280;64321;48.796;44.740;2023-12-14T15:27:16;102881.84;;;-6.83;68.12
75701;BME280;64321;48.796;44.740;2023-12-14T15:32:19;102874.75;;;-6.92;67.45
75701;BME280;64321;48.796;44.740;2023-12-14T15:37:22;102878.47;;;-6.81;66.59
75701;BME280;64321;48.796;44.740;2023-12-14T15:42:24;102886.19;;;-6.79;65.93
75701;BME280;64321;48.796;44.740;2023-12-14T15:47:27;102887.31;;;-6.70;66.40
75701;BME280;64321;48.796;44.740;2023-12-14T15:52:30;102895.69;;;-6.77;67.64
75701;BME280;64321;48.796;44.740;2023-12-14T15:57:33;102894.91;;;-6.74;65.76
75701;BME280;64321;48.796;44.740;2023-12-14T16:02:36;102890.06;;;-6.95;64.18
75701;BME280;64321;48.796;44.740;2023-12-14T16:07:39;102904.03;;;-6.85;63.46
75701;BME280;64321;48.796;44.740;2023-12-14T16:12:42;102897.19;;;-6.85;62.77
75701;BME280;64321;48.796;44.740;2023-12-14T16:17:44;102911.25;;;-7.04;62.66
75701;BME280;64321;48.796;44.740;2023-12-14T16:22:47;102897.59;;;-7.03;62.41
75701;BME280;64321;48.796;44.740;2023-12-14T16:27:50;102895.78;;;-7.05;61.63
75701;BME280;64321;48.796;44.740;2023-12-14T16:32:53;102885.31;;;-7.13;60.86
75701;BME280;64321;48.796;44.740;2023-12-14T16:37:57;102881.50;;;-7.27;61.29
75701;BME280;64321;48.796;44.740;2023-12-14T16:43:00;102880.34;;;-7.38;61.36
75701;BME280;64321;48.796;44.740;2023-12-14T16:48:03;102856.00;;;-7.21;61.29
75701;BME280;64321;48.796;44.740;2023-12-14T16:53:07;102847.13;;;-7.32;62.14
75701;BME280;64321;48.796;44.740;2023-12-14T16:58:12;102835.34;;;-7.25;63.73
75701;BME280;64321;48.796;44.740;2023-12-14T17:03:15;102836.88;;;-7.32;63.14
75701;BME280;64321;48.796;44.740;2023-12-14T17:08:18;102837.69;;;-7.33;63.22
75701;BME280;64321;48.796;44.740;2023-12-14T17:13:22;102838.69;;;-7.28;62.13
75701;BME280;64321;48.796;44.740;2023-12-14T17:18:25;102847.25;;;-7.27;61.41
75701;BME280;64321;48.796;44.740;2023-12-14T17:23:28;102831.91;;;-7.26;60.15
75701;BME280;64321;48.796;44.740;2023-12-14T17:28:31;102845.38;;;-7.33;60.12
75701;BME280;64321;48.796;44.740;2023-12-14T17:33:33;102845.47;;;-7.30;59.35
75701;BME280;64321;48.796;44.740;2023-12-14T17:38:36;102834.25;;;-7.35;58.75
75701;BME280;64321;48.796;44.740;2023-12-14T17:43:39;102823.78;;;-7.41;58.68
75701;BME280;64321;48.796;44.740;2023-12-14T17:48:42;102825.50;;;-7.42;58.53
75701;BME280;64321;48.796;44.740;2023-12-14T17:53:45;102813.94;;;-7.57;59.00
75701;BME280;64321;48.796;44.740;2023-12-14T17:58:48;102806.97;;;-7.61;59.71
75701;BME280;64321;48.796;44.740;2023-12-14T18:03:50;102803.63;;;-7.59;59.49
75701;BME280;64321;48.796;44.740;2023-12-14T18:08:53;102795.53;;;-7.74;59.47
75701;BME280;64321;48.796;44.740;2023-12-14T18:13:55;102805.34;;;-7.59;59.98
75701;BME280;64321;48.796;44.740;2023-12-14T18:18:58;102807.81;;;-7.62;60.29
75701;BME280;64321;48.796;44.740;2023-12-14T18:24:01;102794.75;;;-7.72;60.42
75701;BME280;64321;48.796;44.740;2023-12-14T18:29:05;102793.06;;;-7.70;59.99
75701;BME280;64321;48.796;44.740;2023-12-14T18:34:08;102800.97;;;-7.62;60.32
75701;BME280;64321;48.796;44.740;2023-12-14T18:39:10;102804.22;;;-7.67;59.92
75701;BME280;64321;48.796;44.740;2023-12-14T18:44:13;102805.97;;;-7.66;59.54
75701;BME280;64321;48.796;44.740;2023-12-14T18:49:16;102804.22;;;-7.67;59.75
75701;BME280;64321;48.796;44.740;2023-12-14T18:54:19;102787.16;;;-7.67;59.53
75701;BME280;64321;48.796;44.740;2023-12-14T18:59:21;102791.59;;;-7.61;59.54
75701;BME280;64321;48.796;44.740;2023-12-14T19:04:24;102780.78;;;-7.50;59.57
75701;BME280;64321;48.796;44.740;2023-12-14T19:09:27;102779.84;;;-7.53;59.17
75701;BME280;64321;48.796;44.740;2023-12-14T19:14:31;102779.69;;;-7.59;59.12
75701;BME280;64321;48.796;44.740;2023-12-14T19:19:33;102777.66;;;-7.70;58.32
75701;BME280;64321;48.796;44.740;2023-12-14T19:24:36;102781.09;;;-7.71;58.76
75701;BME280;64321;48.796;44.740;2023-12-14T19:29:39;102782.94;;;-7.65;58.69
75701;BME280;64321;48.796;44.740;2023-12-14T19:34:42;102784.63;;;-7.65;58.77
75701;BME280;64321;48.796;44.740;2023-12-14T19:39:44;102783.75;;;-7.66;58.74
75701;BME280;64321;48.796;44.740;2023-12-14T19:44:47;102780.31;;;-7.66;58.36
75701;BME280;64321;48.796;44.740;2023-12-14T19:49:50;102783.81;;;-7.64;57.89
75701;BME280;64321;48.796;44.740;2023-12-14T19:54:54;102787.41;;;-7.58;57.89
75701;BME280;64321;48.796;44.740;2023-12-14T19:59:57;102797.72;;;-7.56;58.61
75701;BME280;64321;48.796;44.740;2023-12-14T20:05:00;102794.34;;;-7.55;58.26
75701;BME280;64321;48.796;44.740;2023-12-14T20:10:04;102793.50;;;-7.54;58.10
75701;BME280;64321;48.796;44.740;2023-12-14T20:15:11;102794.53;;;-7.48;58.35
75701;BME280;64321;48.796;44.740;2023-12-14T20:20:15;102786.88;;;-7.46;58.56
75701;BME280;64321;48.796;44.740;2023-12-14T20:25:18;102789.53;;;-7.43;57.98
75701;BME280;64321;48.796;44.740;2023-12-14T20:30:21;102792.25;;;-7.37;57.44
75701;BME280;64321;48.796;44.740;2023-12-14T20:35:24;102787.56;;;-7.53;57.63
75701;BME280;64321;48.796;44.740;2023-12-14T20:40:26;102774.88;;;-7.47;57.82
75701;BME280;64321;48.796;44.740;2023-12-14T20:45:30;102774.91;;;-7.46;57.55
75701;BME280;64321;48.796;44.740;2023-12-14T20:50:33;102765.38;;;-7.50;57.73
75701;BME280;64321;48.796;44.740;2023-12-14T20:55:36;102761.91;;;-7.52;58.13
75701;BME280;64321;48.796;44.740;2023-12-14T21:00:39;102768.81;;;-7.49;58.27
75701;BME280;64321;48.796;44.740;2023-12-14T21:05:44;102779.78;;;-7.56;57.75
75701;BME280;64321;48.796;44.740;2023-12-14T21:10:50;102771.06;;;-7.61;58.22
75701;BME280;64321;48.796;44.740;2023-12-14T21:15:53;102763.50;;;-7.57;58.15
75701;BME280;64321;48.796;44.740;2023-12-14T21:20:55;102769.75;;;-7.47;58.39
75701;BME280;64321;48.796;44.740;2023-12-14T21:25:58;102774.00;;;-7.48;58.28
75701;BME280;64321;48.796;44.740;2023-12-14T21:31:07;102764.59;;;-7.47;57.94
75701;BME280;64321;48.796;44.740;2023-12-14T21:36:10;102754.25;;;-7.50;58.54
75701;BME280;64321;48.796;44.740;2023-12-14T21:41:12;102738.88;;;-7.50;58.36
75701;BME280;64321;48.796;44.740;2023-12-14T21:46:15;102738.00;;;-7.51;58.78
75701;BME280;64321;48.796;44.740;2023-12-14T21:51:18;102734.69;;;-7.47;58.72
75701;BME280;64321;48.796;44.740;2023-12-14T21:56:21;102725.06;;;-7.55;58.78
75701;BME280;64321;48.796;44.740;2023-12-14T22:01:23;102713.16;;;-7.53;59.28
75701;BME280;64321;48.796;44.740;2023-12-14T22:06:26;102709.59;;;-7.58;59.61
75701;BME280;64321;48.796;44.740;2023-12-14T22:11:29;102720.63;;;-7.61;59.00
75701;BME280;64321;48.796;44.740;2023-12-14T22:16:31;102710.38;;;-7.61;59.43
75701;BME280;64321;48.796;44.740;2023-12-14T22:21:35;102691.78;;;-7.52;58.98
75701;BME280;64321;48.796;44.740;2023-12-14T22:26:37;102692.56;;;-7.56;58.97
75701;BME280;64321;48.796;44.740;2023-12-14T22:31:40;102696.03;;;-7.54;58.66
75701;BME280;64321;48.796;44.740;2023-12-14T22:36:43;102675.56;;;-7.51;59.06
75701;BME280;64321;48.796;44.740;2023-12-14T22:41:46;102675.28;;;-7.29;59.36
75701;BME280;64321;48.796;44.740;2023-12-14T22:46:48;102665.53;;;-7.42;59.01
75701;BME280;64321;48.796;44.740;2023-12-14T22:51:51;102676.69;;;-7.42;59.55
75701;BME280;64321;48.796;44.740;2023-12-14T22:56:55;102682.75;;;-7.38;60.00
75701;BME280;64321;48.796;44.740;2023-12-14T23:01:57;102680.84;;;-7.45;59.47
75701;BME280;64321;48.796;44.740;2023-12-14T23:07:01;102672.25;;;-7.47;59.24
75701;BME280;64321;48.796;44.740;2023-12-14T23:12:04;102679.19;;;-7.43;59.93
75701;BME280;64321;48.796;44.740;2023-12-14T23:17:07;102685.25;;;-7.41;60.09
75701;BME280;64321;48.796;44.740;2023-12-14T23:22:10;102673.06;;;-7.48;60.06
75701;BME280;64321;48.796;44.740;2023-12-14T23:27:12;102668.72;;;-7.51;60.80
75701;BME280;64321;48.796;44.740;2023-12-14T23:32:15;102656.09;;;-7.43;61.02
75701;BME280;64321;48.796;44.740;2023-12-14T23:37:17;102648.34;;;-7.46;61.27
75701;BME280;64321;48.796;44.740;2023-12-14T23:42:21;102646.19;;;-7.64;60.97
75701;BME280;64321;48.796;44.740;2023-12-14T23:47:25;102648.75;;;-7.64;60.87
75701;BME280;64321;48.796;44.740;2023-12-14T23:52:28;102638.34;;;-7.68;61.89
75701;BME280;64321;48.796;44.740;2023-12-14T23:57:30;102634.81;;;-7.74;61.86
